Decoded Metar for KMYV (MARYSVILLE in CA, USA) (IATA:MYV) | Meteo·Mobile Aviation Weather
aviador You're here:

KMYV Decoded Metar

MARYSVILLE in CA, USA
Report Time2018-12-11 00:53:00
UTC Time2018-12-11 01:58:19
Flight Rules vfr VFR
Wind340° at 03 kt
W.Decomp.*RWY 32: 3.0 kt HW 0.2 kt RCW
RWY 05: 0.2 kt HW 3 kt LCW
W.Rank340° ranks 6
Current wind is below 340° avg. (7.9)
Visibility9999 m
Phenomena:N/A
Clouds:N/A
Expected CloudBase > 2,800 ft AGL from Temp-Dew spread
CeilingNone
Temp13°C (ISA -2)
Dew Point06°C (63% RH)
AAT11.0°C
QNH1021 hPa
Density Alt-295 ft
Elevation69 ft
Report Wrong Elevation
Raw Report
KMYV 110053Z AUTO 34003KT 10SM CLR 13/06 A3015 RMK AO2 SLP213
T01280061=

Extra information for KMYV:More info

Metar Taf Metar & Taf Last 4 Metars F.Rules Stats Wind Profile Meteogram Temp Stats Airport Information Weather charts Add Link Nearby VenuesMetar ALERT Operation Metar Decoded Social comments

AIRNAV info for KMYV